EGV5710 LOWW-EGLL
Flight info
| Callsign | EGV5710 |
|---|---|
| Flight time | 1h 54m |
| Altitude | 38000 |
| Route | BUWUT DCT DITIS DCT IPDUL DCT OKG DCT VELIS DCT SWALM DCT TIVUN DCT BREDA DCT ABNED L980 LOGAN |
| Aircraft | A346/H-SDE2E3FGHIJ3J4J5M1RWXY/LB1D1 |
Departure
| Time | 2026-05-05 13:12 |
|---|---|
| Airport | Vienna International Airport (LOWW) |
Arrival
| Time | 2026-05-05 15:07 |
|---|---|
| Airport | London Heathrow Airport (EGLL) |
| Time | Latitude | Longitude | Altitude | Speed | Heading |
|---|---|---|---|---|---|
| 2026-05-05 12:42 | 48.11815 | 16.56238 | 619 ft | 0 kts | 303° |
| 2026-05-05 12:57 | 48.11804 | 16.56263 | 651 ft | 0 kts | 303° |
| 2026-05-05 12:58 | 48.11789 | 16.56296 | 632 ft | 0 kts | 303° |
| 2026-05-05 12:58 | 48.11781 | 16.56317 | 632 ft | 0 kts | 298° |
| 2026-05-05 12:59 | 48.11782 | 16.56314 | 632 ft | 1 kts | 298° |
| 2026-05-05 12:59 | 48.11772 | 16.56342 | 632 ft | 1 kts | 298° |
| 2026-05-05 12:59 | 48.11759 | 16.56377 | 632 ft | 2 kts | 298° |
| 2026-05-05 13:00 | 48.11749 | 16.56405 | 618 ft | 0 kts | 298° |
| 2026-05-05 13:03 | 48.11749 | 16.56404 | 617 ft | 1 kts | 298° |
| 2026-05-05 13:03 | 48.11752 | 16.56325 | 624 ft | 8 kts | 233° |
| 2026-05-05 13:03 | 48.11698 | 16.56276 | 628 ft | 11 kts | 211° |
| 2026-05-05 13:04 | 48.11632 | 16.56288 | 629 ft | 11 kts | 136° |
| 2026-05-05 13:04 | 48.11587 | 16.56396 | 629 ft | 14 kts | 116° |
| 2026-05-05 13:04 | 48.11541 | 16.56535 | 629 ft | 16 kts | 116° |
| 2026-05-05 13:04 | 48.11487 | 16.56704 | 625 ft | 19 kts | 117° |
| 2026-05-05 13:05 | 48.11423 | 16.56898 | 627 ft | 22 kts | 116° |
| 2026-05-05 13:05 | 48.11353 | 16.57112 | 624 ft | 24 kts | 116° |
| 2026-05-05 13:05 | 48.11277 | 16.57347 | 623 ft | 26 kts | 116° |
| 2026-05-05 13:05 | 48.11211 | 16.57549 | 624 ft | 14 kts | 115° |
| 2026-05-05 13:06 | 48.11240 | 16.57662 | 628 ft | 14 kts | 34° |
| 2026-05-05 13:06 | 48.11336 | 16.57670 | 627 ft | 16 kts | 346° |
| 2026-05-05 13:06 | 48.11451 | 16.57623 | 630 ft | 19 kts | 344° |
| 2026-05-05 13:06 | 48.11585 | 16.57566 | 628 ft | 21 kts | 344° |
| 2026-05-05 13:07 | 48.11736 | 16.57502 | 624 ft | 24 kts | 344° |
| 2026-05-05 13:07 | 48.11901 | 16.57432 | 627 ft | 25 kts | 344° |
| 2026-05-05 13:07 | 48.12006 | 16.57467 | 624 ft | 14 kts | 75° |
| 2026-05-05 13:07 | 48.12001 | 16.57556 | 622 ft | 0 kts | 104° |
| 2026-05-05 13:10 | 48.11993 | 16.57605 | 625 ft | 11 kts | 104° |
| 2026-05-05 13:10 | 48.11971 | 16.57730 | 626 ft | 13 kts | 109° |
| 2026-05-05 13:10 | 48.11909 | 16.57841 | 627 ft | 14 kts | 148° |
| 2026-05-05 13:11 | 48.11819 | 16.57884 | 625 ft | 0 kts | 164° |
| 2026-05-05 13:11 | 48.11789 | 16.57896 | 622 ft | 23 kts | 164° |
| 2026-05-05 13:12 | 48.11405 | 16.58061 | 626 ft | 89 kts | 165° |
| 2026-05-05 13:12 | 48.10633 | 16.58388 | 629 ft | 143 kts | 165° |
| 2026-05-05 13:12 | 48.09574 | 16.58834 | 933 ft | 166 kts | 166° |
| 2026-05-05 13:12 | 48.08452 | 16.59316 | 1639 ft | 169 kts | 168° |
| 2026-05-05 13:13 | 48.07318 | 16.59780 | 2368 ft | 170 kts | 170° |
| 2026-05-05 13:13 | 48.06156 | 16.60333 | 2877 ft | 185 kts | 157° |
| 2026-05-05 13:13 | 48.05160 | 16.61759 | 3220 ft | 216 kts | 128° |
| 2026-05-05 13:13 | 48.04758 | 16.63945 | 3513 ft | 249 kts | 95° |
| 2026-05-05 13:14 | 48.05338 | 16.66544 | 3823 ft | 283 kts | 56° |
| 2026-05-05 13:14 | 48.06761 | 16.68684 | 4443 ft | 295 kts | 42° |
| 2026-05-05 13:14 | 48.08388 | 16.70601 | 4852 ft | 299 kts | 40° |
| 2026-05-05 13:14 | 48.10033 | 16.72529 | 4964 ft | 299 kts | 40° |
| 2026-05-05 13:15 | 48.11640 | 16.74488 | 4970 ft | 297 kts | 42° |
| 2026-05-05 13:15 | 48.13227 | 16.76484 | 4968 ft | 298 kts | 43° |
| 2026-05-05 13:15 | 48.14877 | 16.78376 | 4947 ft | 300 kts | 27° |
| 2026-05-05 13:15 | 48.16895 | 16.79017 | 4950 ft | 299 kts | 353° |
| 2026-05-05 13:16 | 48.18946 | 16.78523 | 4975 ft | 299 kts | 346° |
| 2026-05-05 13:16 | 48.20981 | 16.77885 | 4989 ft | 299 kts | 345° |
| 2026-05-05 13:16 | 48.23026 | 16.77260 | 5014 ft | 303 kts | 346° |
| 2026-05-05 13:16 | 48.25130 | 16.76662 | 5574 ft | 311 kts | 347° |
| 2026-05-05 13:17 | 48.27244 | 16.76094 | 6724 ft | 306 kts | 347° |
| 2026-05-05 13:17 | 48.29329 | 16.75545 | 7794 ft | 304 kts | 347° |
| 2026-05-05 13:17 | 48.31416 | 16.74993 | 8815 ft | 305 kts | 347° |
| 2026-05-05 13:17 | 48.33499 | 16.74348 | 9768 ft | 306 kts | 341° |
| 2026-05-05 13:18 | 48.35485 | 16.73307 | 10519 ft | 309 kts | 333° |
| 2026-05-05 13:18 | 48.37461 | 16.71850 | 11027 ft | 324 kts | 328° |
| 2026-05-05 13:18 | 48.39520 | 16.70204 | 11485 ft | 342 kts | 328° |
| 2026-05-05 13:18 | 48.41673 | 16.68466 | 11893 ft | 360 kts | 327° |
| 2026-05-05 13:19 | 48.43687 | 16.66133 | 12249 ft | 372 kts | 309° |
| 2026-05-05 13:19 | 48.45159 | 16.62897 | 12655 ft | 380 kts | 291° |
| 2026-05-05 13:19 | 48.46111 | 16.59157 | 13391 ft | 383 kts | 287° |
| 2026-05-05 13:19 | 48.47023 | 16.55387 | 14310 ft | 382 kts | 288° |
| 2026-05-05 13:20 | 48.47943 | 16.51615 | 15168 ft | 384 kts | 287° |
| 2026-05-05 13:20 | 48.48878 | 16.47807 | 15861 ft | 389 kts | 287° |
| 2026-05-05 13:20 | 48.49816 | 16.43941 | 16529 ft | 396 kts | 288° |
| 2026-05-05 13:20 | 48.50781 | 16.40015 | 17184 ft | 402 kts | 287° |
| 2026-05-05 13:21 | 48.51759 | 16.36041 | 17979 ft | 404 kts | 289° |
| 2026-05-05 13:21 | 48.52736 | 16.32036 | 18562 ft | 410 kts | 289° |
| 2026-05-05 13:21 | 48.53735 | 16.27974 | 19122 ft | 415 kts | 288° |
| 2026-05-05 13:21 | 48.54742 | 16.23874 | 19834 ft | 416 kts | 288° |
| 2026-05-05 13:22 | 48.55739 | 16.19760 | 20525 ft | 419 kts | 289° |
| 2026-05-05 13:22 | 48.56750 | 16.15588 | 21022 ft | 426 kts | 289° |
| 2026-05-05 13:22 | 48.57854 | 16.11395 | 21587 ft | 431 kts | 291° |
| 2026-05-05 13:22 | 48.59044 | 16.07212 | 22208 ft | 435 kts | 292° |
| 2026-05-05 13:23 | 48.60256 | 16.02998 | 22825 ft | 438 kts | 292° |
| 2026-05-05 13:23 | 48.61477 | 15.98752 | 23405 ft | 442 kts | 292° |
| 2026-05-05 13:23 | 48.62705 | 15.94472 | 23910 ft | 445 kts | 292° |
| 2026-05-05 13:23 | 48.63939 | 15.90156 | 24419 ft | 448 kts | 292° |
| 2026-05-05 13:24 | 48.65182 | 15.85805 | 24969 ft | 450 kts | 292° |
| 2026-05-05 13:24 | 48.66422 | 15.81440 | 25500 ft | 453 kts | 292° |
| 2026-05-05 13:24 | 48.67672 | 15.77033 | 26022 ft | 455 kts | 291° |
| 2026-05-05 13:24 | 48.68920 | 15.72616 | 26569 ft | 457 kts | 291° |
| 2026-05-05 13:25 | 48.70170 | 15.68175 | 27067 ft | 460 kts | 291° |
| 2026-05-05 13:25 | 48.71431 | 15.63690 | 27498 ft | 464 kts | 292° |
| 2026-05-05 13:25 | 48.72705 | 15.59177 | 27960 ft | 467 kts | 292° |
| 2026-05-05 13:25 | 48.73978 | 15.54652 | 28587 ft | 466 kts | 292° |
| 2026-05-05 13:26 | 48.75248 | 15.50138 | 29337 ft | 463 kts | 291° |
| 2026-05-05 13:26 | 48.76508 | 15.45647 | 30059 ft | 460 kts | 291° |
| 2026-05-05 13:26 | 48.77755 | 15.41189 | 30685 ft | 458 kts | 291° |
| 2026-05-05 13:26 | 48.79043 | 15.36843 | 31261 ft | 457 kts | 294° |
| 2026-05-05 13:27 | 48.80488 | 15.32549 | 31844 ft | 456 kts | 296° |
| 2026-05-05 13:27 | 48.82072 | 15.28387 | 32422 ft | 455 kts | 299° |
| 2026-05-05 13:27 | 48.83795 | 15.24357 | 33011 ft | 454 kts | 302° |
| 2026-05-05 13:27 | 48.85612 | 15.20446 | 33580 ft | 452 kts | 303° |
| 2026-05-05 13:28 | 48.87448 | 15.16571 | 34096 ft | 451 kts | 303° |
| 2026-05-05 13:28 | 48.89278 | 15.12702 | 34551 ft | 449 kts | 302° |
| 2026-05-05 13:28 | 48.90998 | 15.08744 | 34974 ft | 448 kts | 300° |
| 2026-05-05 13:28 | 48.92661 | 15.04747 | 35421 ft | 447 kts | 300° |
| 2026-05-05 13:29 | 48.94311 | 15.00737 | 35827 ft | 446 kts | 299° |
| 2026-05-05 13:29 | 48.95949 | 14.96742 | 36185 ft | 446 kts | 299° |
| 2026-05-05 13:29 | 48.97596 | 14.92722 | 36494 ft | 447 kts | 299° |
| 2026-05-05 13:29 | 48.99243 | 14.88699 | 36758 ft | 448 kts | 299° |
| 2026-05-05 13:30 | 49.00896 | 14.84657 | 37035 ft | 450 kts | 299° |
| 2026-05-05 13:30 | 49.02551 | 14.80610 | 37316 ft | 450 kts | 299° |
| 2026-05-05 13:30 | 49.04208 | 14.76551 | 37590 ft | 451 kts | 299° |
| 2026-05-05 13:30 | 49.05868 | 14.72477 | 37766 ft | 453 kts | 299° |
| 2026-05-05 13:31 | 49.09196 | 14.64296 | 37778 ft | 453 kts | 299° |
| 2026-05-05 13:31 | 49.12517 | 14.56104 | 37772 ft | 453 kts | 299° |
| 2026-05-05 13:32 | 49.15835 | 14.47894 | 37772 ft | 453 kts | 299° |
| 2026-05-05 13:32 | 49.19146 | 14.39677 | 37777 ft | 453 kts | 299° |
| 2026-05-05 13:33 | 49.22452 | 14.31447 | 37793 ft | 453 kts | 299° |
| 2026-05-05 13:33 | 49.25759 | 14.23196 | 37781 ft | 454 kts | 298° |
| 2026-05-05 13:34 | 49.29030 | 14.14997 | 37779 ft | 454 kts | 298° |
| 2026-05-05 13:34 | 49.32320 | 14.06729 | 37778 ft | 454 kts | 298° |
| 2026-05-05 13:35 | 49.35603 | 13.98454 | 37782 ft | 453 kts | 298° |
| 2026-05-05 13:35 | 49.38870 | 13.90193 | 37779 ft | 453 kts | 298° |
| 2026-05-05 13:36 | 49.42183 | 13.81941 | 37779 ft | 454 kts | 300° |
| 2026-05-05 13:36 | 49.45827 | 13.73976 | 37777 ft | 455 kts | 302° |
| 2026-05-05 13:37 | 49.49522 | 13.66058 | 37783 ft | 455 kts | 302° |
| 2026-05-05 13:37 | 49.53217 | 13.58114 | 37795 ft | 456 kts | 302° |
| 2026-05-05 13:38 | 49.56904 | 13.50160 | 37806 ft | 456 kts | 302° |
| 2026-05-05 13:38 | 49.60580 | 13.42191 | 37800 ft | 456 kts | 302° |
| 2026-05-05 13:39 | 49.64253 | 13.34204 | 37817 ft | 456 kts | 302° |
| 2026-05-05 13:39 | 49.67918 | 13.26215 | 37812 ft | 455 kts | 302° |
| 2026-05-05 13:40 | 49.71572 | 13.18224 | 37800 ft | 455 kts | 301° |
| 2026-05-05 13:40 | 49.75217 | 13.10229 | 37776 ft | 455 kts | 301° |
| 2026-05-05 13:41 | 49.78859 | 13.02215 | 37767 ft | 455 kts | 301° |
| 2026-05-05 13:41 | 49.82493 | 12.94197 | 37777 ft | 455 kts | 301° |
| 2026-05-05 13:42 | 49.86124 | 12.86161 | 37771 ft | 455 kts | 301° |
| 2026-05-05 13:42 | 49.89748 | 12.78116 | 37794 ft | 455 kts | 301° |
| 2026-05-05 13:43 | 49.93380 | 12.70028 | 37794 ft | 457 kts | 301° |
| 2026-05-05 13:43 | 49.96983 | 12.61979 | 37803 ft | 456 kts | 301° |
| 2026-05-05 13:44 | 50.00596 | 12.53880 | 37795 ft | 455 kts | 301° |
| 2026-05-05 13:44 | 50.04065 | 12.45658 | 37795 ft | 453 kts | 296° |
| 2026-05-05 13:45 | 50.06972 | 12.36985 | 37791 ft | 451 kts | 290° |
| 2026-05-05 13:45 | 50.09275 | 12.27887 | 37790 ft | 450 kts | 285° |
| 2026-05-05 13:46 | 50.11290 | 12.18649 | 37805 ft | 450 kts | 285° |
| 2026-05-05 13:46 | 50.13289 | 12.09395 | 37819 ft | 450 kts | 285° |
| 2026-05-05 13:47 | 50.15270 | 12.00194 | 37827 ft | 450 kts | 285° |
| 2026-05-05 13:47 | 50.17263 | 11.90923 | 37840 ft | 451 kts | 284° |
| 2026-05-05 13:48 | 50.19248 | 11.81627 | 37840 ft | 451 kts | 284° |
| 2026-05-05 13:48 | 50.21228 | 11.72319 | 37838 ft | 451 kts | 284° |
| 2026-05-05 13:49 | 50.23198 | 11.63011 | 37830 ft | 451 kts | 284° |
| 2026-05-05 13:49 | 50.25164 | 11.53689 | 37839 ft | 451 kts | 284° |
| 2026-05-05 13:50 | 50.27124 | 11.44357 | 37822 ft | 451 kts | 284° |
| 2026-05-05 13:50 | 50.28746 | 11.36591 | 37807 ft | 451 kts | 284° |
| 2026-05-05 13:51 | 50.30690 | 11.27246 | 37803 ft | 451 kts | 284° |
| 2026-05-05 13:51 | 50.32629 | 11.17879 | 37802 ft | 451 kts | 283° |
| 2026-05-05 13:52 | 50.34563 | 11.08504 | 37810 ft | 453 kts | 283° |
| 2026-05-05 13:52 | 50.36492 | 10.99098 | 37815 ft | 452 kts | 283° |
| 2026-05-05 13:53 | 50.38407 | 10.89718 | 37808 ft | 451 kts | 283° |
| 2026-05-05 13:53 | 50.40313 | 10.80336 | 37808 ft | 451 kts | 283° |
| 2026-05-05 13:54 | 50.42211 | 10.70948 | 37812 ft | 451 kts | 283° |
| 2026-05-05 13:54 | 50.44108 | 10.61515 | 37813 ft | 453 kts | 283° |
| 2026-05-05 13:55 | 50.45988 | 10.52122 | 37808 ft | 454 kts | 283° |
| 2026-05-05 13:55 | 50.47887 | 10.42642 | 37810 ft | 454 kts | 283° |
| 2026-05-05 13:56 | 50.49793 | 10.33173 | 37811 ft | 454 kts | 283° |
| 2026-05-05 13:56 | 50.51690 | 10.23702 | 37828 ft | 454 kts | 283° |
| 2026-05-05 13:57 | 50.53585 | 10.14189 | 37817 ft | 456 kts | 283° |
| 2026-05-05 13:57 | 50.55474 | 10.04647 | 37816 ft | 456 kts | 283° |
| 2026-05-05 13:58 | 50.57354 | 9.95107 | 37812 ft | 456 kts | 283° |
| 2026-05-05 13:58 | 50.59229 | 9.85548 | 37814 ft | 456 kts | 283° |
| 2026-05-05 13:59 | 50.62026 | 9.71196 | 37820 ft | 457 kts | 282° |
| 2026-05-05 14:00 | 50.64805 | 9.56826 | 37815 ft | 456 kts | 282° |
| 2026-05-05 14:00 | 50.66647 | 9.47238 | 37816 ft | 456 kts | 282° |
| 2026-05-05 14:01 | 50.68480 | 9.37647 | 37813 ft | 456 kts | 282° |
| 2026-05-05 14:01 | 50.70313 | 9.28007 | 37816 ft | 458 kts | 282° |
| 2026-05-05 14:02 | 50.72127 | 9.18359 | 37815 ft | 457 kts | 281° |
| 2026-05-05 14:02 | 50.73819 | 9.08733 | 37815 ft | 457 kts | 281° |
| 2026-05-05 14:03 | 50.75497 | 8.99038 | 37815 ft | 457 kts | 281° |
| 2026-05-05 14:03 | 50.77173 | 8.89339 | 37813 ft | 457 kts | 281° |
| 2026-05-05 14:04 | 50.78847 | 8.79624 | 37817 ft | 457 kts | 281° |
| 2026-05-05 14:04 | 50.80511 | 8.69912 | 37814 ft | 457 kts | 281° |
| 2026-05-05 14:05 | 50.82168 | 8.60194 | 37810 ft | 457 kts | 281° |
| 2026-05-05 14:05 | 50.83816 | 8.50473 | 37814 ft | 457 kts | 280° |
| 2026-05-05 14:06 | 50.85447 | 8.40785 | 37832 ft | 459 kts | 281° |
| 2026-05-05 14:06 | 50.87090 | 8.30984 | 37833 ft | 460 kts | 280° |
| 2026-05-05 14:07 | 50.88725 | 8.21174 | 37834 ft | 460 kts | 280° |
| 2026-05-05 14:07 | 50.90352 | 8.11354 | 37834 ft | 460 kts | 280° |
| 2026-05-05 14:08 | 50.91981 | 8.01453 | 37853 ft | 460 kts | 281° |
| 2026-05-05 14:08 | 50.93896 | 7.91764 | 37844 ft | 465 kts | 284° |
| 2026-05-05 14:09 | 50.96016 | 7.82056 | 37826 ft | 465 kts | 285° |
| 2026-05-05 14:09 | 50.98132 | 7.72351 | 37843 ft | 465 kts | 285° |
| 2026-05-05 14:10 | 51.00233 | 7.62643 | 37847 ft | 465 kts | 284° |
| 2026-05-05 14:10 | 51.02326 | 7.52917 | 37854 ft | 465 kts | 284° |
| 2026-05-05 14:11 | 51.04414 | 7.43161 | 37849 ft | 465 kts | 284° |
| 2026-05-05 14:11 | 51.06492 | 7.33408 | 37841 ft | 465 kts | 284° |
| 2026-05-05 14:12 | 51.08563 | 7.23641 | 37844 ft | 465 kts | 284° |
| 2026-05-05 14:12 | 51.10627 | 7.13863 | 37835 ft | 465 kts | 284° |
| 2026-05-05 14:13 | 51.12681 | 7.04070 | 37881 ft | 465 kts | 284° |
| 2026-05-05 14:13 | 51.14717 | 6.94339 | 37869 ft | 462 kts | 284° |
| 2026-05-05 14:14 | 51.16740 | 6.84612 | 37868 ft | 462 kts | 284° |
| 2026-05-05 14:14 | 51.18753 | 6.74878 | 37868 ft | 462 kts | 284° |
| 2026-05-05 14:15 | 51.20758 | 6.65141 | 37881 ft | 462 kts | 284° |
| 2026-05-05 14:15 | 51.22757 | 6.55372 | 37898 ft | 463 kts | 284° |
| 2026-05-05 14:16 | 51.24756 | 6.45576 | 37896 ft | 463 kts | 284° |
| 2026-05-05 14:16 | 51.26732 | 6.35843 | 37893 ft | 463 kts | 284° |
| 2026-05-05 14:17 | 51.28712 | 6.26036 | 37892 ft | 463 kts | 284° |
| 2026-05-05 14:17 | 51.30682 | 6.16211 | 37897 ft | 464 kts | 284° |
| 2026-05-05 14:18 | 51.32649 | 6.06371 | 37890 ft | 464 kts | 284° |
| 2026-05-05 14:18 | 51.34609 | 5.96526 | 37887 ft | 464 kts | 284° |
| 2026-05-05 14:19 | 51.36561 | 5.86665 | 37892 ft | 464 kts | 284° |
| 2026-05-05 14:19 | 51.38503 | 5.76798 | 37903 ft | 464 kts | 284° |
| 2026-05-05 14:20 | 51.40437 | 5.66909 | 37907 ft | 465 kts | 284° |
| 2026-05-05 14:20 | 51.42372 | 5.56980 | 37900 ft | 466 kts | 284° |
| 2026-05-05 14:21 | 51.44298 | 5.47047 | 37894 ft | 466 kts | 284° |
| 2026-05-05 14:21 | 51.46210 | 5.37120 | 37894 ft | 464 kts | 284° |
| 2026-05-05 14:22 | 51.48108 | 5.27229 | 37911 ft | 463 kts | 284° |
| 2026-05-05 14:22 | 51.49994 | 5.17333 | 37899 ft | 464 kts | 284° |
| 2026-05-05 14:23 | 51.51879 | 5.07411 | 37924 ft | 464 kts | 284° |
| 2026-05-05 14:23 | 51.53752 | 4.97488 | 37915 ft | 464 kts | 284° |
| 2026-05-05 14:24 | 51.55615 | 4.87555 | 37933 ft | 464 kts | 284° |
| 2026-05-05 14:24 | 51.57424 | 4.77663 | 37922 ft | 464 kts | 283° |
| 2026-05-05 14:25 | 51.59208 | 4.67659 | 37913 ft | 465 kts | 283° |
| 2026-05-05 14:25 | 51.60986 | 4.57646 | 37914 ft | 465 kts | 283° |
| 2026-05-05 14:26 | 51.62758 | 4.47616 | 37915 ft | 465 kts | 283° |
| 2026-05-05 14:26 | 51.64521 | 4.37592 | 37917 ft | 465 kts | 283° |
| 2026-05-05 14:27 | 51.66277 | 4.27551 | 37912 ft | 465 kts | 283° |
| 2026-05-05 14:27 | 51.68023 | 4.17503 | 37915 ft | 465 kts | 283° |
| 2026-05-05 14:28 | 51.69761 | 4.07452 | 37911 ft | 465 kts | 283° |
| 2026-05-05 14:28 | 51.71489 | 3.97395 | 37915 ft | 465 kts | 283° |
| 2026-05-05 14:29 | 51.73210 | 3.87325 | 37931 ft | 465 kts | 283° |
| 2026-05-05 14:29 | 51.74922 | 3.77240 | 37937 ft | 466 kts | 283° |
| 2026-05-05 14:30 | 51.76628 | 3.67148 | 37937 ft | 465 kts | 283° |
| 2026-05-05 14:30 | 51.78319 | 3.57066 | 37936 ft | 465 kts | 283° |
| 2026-05-05 14:31 | 51.80005 | 3.46972 | 37937 ft | 464 kts | 282° |
| 2026-05-05 14:31 | 51.81665 | 3.36952 | 37947 ft | 464 kts | 283° |
| 2026-05-05 14:32 | 51.83194 | 3.26817 | 37943 ft | 463 kts | 279° |
| 2026-05-05 14:32 | 51.84053 | 3.16495 | 37583 ft | 462 kts | 272° |
| 2026-05-05 14:33 | 51.84202 | 3.11327 | 37066 ft | 458 kts | 268° |
| 2026-05-05 14:33 | 51.84160 | 3.06189 | 36502 ft | 455 kts | 265° |
| 2026-05-05 14:33 | 51.83940 | 3.01094 | 35922 ft | 454 kts | 263° |
| 2026-05-05 14:33 | 51.83640 | 2.96009 | 35353 ft | 453 kts | 262° |
| 2026-05-05 14:34 | 51.83333 | 2.90928 | 34780 ft | 453 kts | 262° |
| 2026-05-05 14:34 | 51.83018 | 2.85840 | 34175 ft | 454 kts | 262° |
| 2026-05-05 14:34 | 51.82704 | 2.80754 | 33484 ft | 455 kts | 262° |
| 2026-05-05 14:34 | 51.82390 | 2.75656 | 32836 ft | 455 kts | 262° |
| 2026-05-05 14:35 | 51.82074 | 2.70560 | 32191 ft | 455 kts | 262° |
| 2026-05-05 14:35 | 51.81756 | 2.65467 | 31551 ft | 455 kts | 262° |
| 2026-05-05 14:35 | 51.81436 | 2.60367 | 30907 ft | 455 kts | 262° |
| 2026-05-05 14:35 | 51.81115 | 2.55266 | 30260 ft | 456 kts | 262° |
| 2026-05-05 14:36 | 51.80789 | 2.50152 | 29539 ft | 457 kts | 261° |
| 2026-05-05 14:36 | 51.80459 | 2.45030 | 28815 ft | 458 kts | 262° |
| 2026-05-05 14:36 | 51.80241 | 2.41640 | 28379 ft | 458 kts | 262° |
| 2026-05-05 14:36 | 51.79908 | 2.36518 | 27682 ft | 457 kts | 262° |
| 2026-05-05 14:37 | 51.79460 | 2.29666 | 27049 ft | 457 kts | 262° |
| 2026-05-05 14:37 | 51.79236 | 2.26290 | 26762 ft | 455 kts | 262° |
| 2026-05-05 14:37 | 51.78907 | 2.21233 | 26545 ft | 446 kts | 262° |
| 2026-05-05 14:37 | 51.78583 | 2.16319 | 26441 ft | 432 kts | 261° |
| 2026-05-05 14:38 | 51.78266 | 2.11562 | 26330 ft | 419 kts | 261° |
| 2026-05-05 14:38 | 51.77950 | 2.06933 | 26209 ft | 407 kts | 262° |
| 2026-05-05 14:38 | 51.77649 | 2.02449 | 26090 ft | 396 kts | 262° |
| 2026-05-05 14:38 | 51.77355 | 1.98087 | 25978 ft | 384 kts | 261° |
| 2026-05-05 14:39 | 51.77060 | 1.93857 | 25892 ft | 372 kts | 261° |
| 2026-05-05 14:39 | 51.76773 | 1.89754 | 25727 ft | 363 kts | 262° |
| 2026-05-05 14:39 | 51.76497 | 1.85768 | 25665 ft | 350 kts | 261° |
| 2026-05-05 14:39 | 51.76232 | 1.81919 | 25593 ft | 338 kts | 261° |
| 2026-05-05 14:40 | 51.75974 | 1.78208 | 25519 ft | 328 kts | 260° |
| 2026-05-05 14:40 | 51.75716 | 1.74559 | 25431 ft | 326 kts | 261° |
| 2026-05-05 14:40 | 51.75453 | 1.70918 | 25337 ft | 326 kts | 261° |
| 2026-05-05 14:40 | 51.75191 | 1.67283 | 25235 ft | 325 kts | 261° |
| 2026-05-05 14:41 | 51.74934 | 1.63655 | 25120 ft | 325 kts | 261° |
| 2026-05-05 14:41 | 51.74680 | 1.60035 | 24884 ft | 324 kts | 261° |
| 2026-05-05 14:41 | 51.74446 | 1.56378 | 24340 ft | 329 kts | 261° |
| 2026-05-05 14:41 | 51.74213 | 1.52732 | 23853 ft | 332 kts | 262° |
| 2026-05-05 14:42 | 51.74018 | 1.49678 | 23614 ft | 329 kts | 261° |
| 2026-05-05 14:43 | 51.73789 | 1.46096 | 23289 ft | 324 kts | 262° |
| 2026-05-05 14:43 | 51.73558 | 1.42493 | 22946 ft | 320 kts | 261° |
| 2026-05-05 14:43 | 51.73332 | 1.38946 | 22634 ft | 315 kts | 262° |
| 2026-05-05 14:43 | 51.73107 | 1.35447 | 22314 ft | 311 kts | 261° |
| 2026-05-05 14:44 | 51.72880 | 1.31996 | 21991 ft | 307 kts | 261° |
| 2026-05-05 14:44 | 51.72650 | 1.28577 | 21624 ft | 305 kts | 261° |
| 2026-05-05 14:44 | 51.72424 | 1.25178 | 21242 ft | 304 kts | 262° |
| 2026-05-05 14:44 | 51.72202 | 1.21790 | 20875 ft | 302 kts | 262° |
| 2026-05-05 14:45 | 51.71980 | 1.18426 | 20492 ft | 301 kts | 262° |
| 2026-05-05 14:45 | 51.71753 | 1.15070 | 20130 ft | 300 kts | 262° |
| 2026-05-05 14:45 | 51.71530 | 1.11727 | 19761 ft | 299 kts | 262° |
| 2026-05-05 14:45 | 51.71302 | 1.08387 | 19401 ft | 298 kts | 263° |
| 2026-05-05 14:46 | 51.71076 | 1.05068 | 19070 ft | 296 kts | 263° |
| 2026-05-05 14:46 | 51.70849 | 1.01766 | 18733 ft | 295 kts | 263° |
| 2026-05-05 14:46 | 51.70624 | 0.98486 | 18414 ft | 293 kts | 263° |
| 2026-05-05 14:46 | 51.70399 | 0.95218 | 18030 ft | 293 kts | 264° |
| 2026-05-05 14:47 | 51.70172 | 0.91950 | 17566 ft | 295 kts | 264° |
| 2026-05-05 14:47 | 51.69941 | 0.88594 | 16815 ft | 307 kts | 264° |
| 2026-05-05 14:47 | 51.69702 | 0.85108 | 16111 ft | 317 kts | 264° |
| 2026-05-05 14:47 | 51.69453 | 0.81547 | 15659 ft | 318 kts | 264° |
| 2026-05-05 14:48 | 51.69205 | 0.78010 | 15308 ft | 316 kts | 264° |
| 2026-05-05 14:48 | 51.68955 | 0.74499 | 14945 ft | 315 kts | 264° |
| 2026-05-05 14:48 | 51.68707 | 0.70991 | 14576 ft | 313 kts | 264° |
| 2026-05-05 14:48 | 51.68458 | 0.67506 | 14203 ft | 313 kts | 264° |
| 2026-05-05 14:49 | 51.68210 | 0.64021 | 13843 ft | 311 kts | 264° |
| 2026-05-05 14:49 | 51.67962 | 0.60556 | 13477 ft | 309 kts | 264° |
| 2026-05-05 14:49 | 51.67714 | 0.57122 | 13110 ft | 307 kts | 264° |
| 2026-05-05 14:49 | 51.67467 | 0.53716 | 12743 ft | 305 kts | 264° |
| 2026-05-05 14:50 | 51.67220 | 0.50328 | 12386 ft | 303 kts | 264° |
| 2026-05-05 14:50 | 51.66973 | 0.46966 | 12016 ft | 301 kts | 264° |
| 2026-05-05 14:50 | 51.66728 | 0.43627 | 11662 ft | 299 kts | 264° |
| 2026-05-05 14:50 | 51.66487 | 0.40313 | 11330 ft | 296 kts | 264° |
| 2026-05-05 14:51 | 51.66244 | 0.37027 | 10972 ft | 294 kts | 264° |
| 2026-05-05 14:51 | 51.66002 | 0.33762 | 10587 ft | 294 kts | 264° |
| 2026-05-05 14:51 | 51.65755 | 0.30487 | 9972 ft | 302 kts | 264° |
| 2026-05-05 14:51 | 51.65499 | 0.27066 | 9442 ft | 305 kts | 264° |
| 2026-05-05 14:52 | 51.65246 | 0.23686 | 9076 ft | 302 kts | 264° |
| 2026-05-05 14:52 | 51.64995 | 0.20356 | 8800 ft | 296 kts | 264° |
| 2026-05-05 14:52 | 51.64751 | 0.17129 | 8534 ft | 291 kts | 264° |
| 2026-05-05 14:52 | 51.64518 | 0.13918 | 8260 ft | 285 kts | 265° |
| 2026-05-05 14:53 | 51.64339 | 0.10762 | 7989 ft | 280 kts | 266° |
| 2026-05-05 14:53 | 51.64172 | 0.07657 | 7746 ft | 275 kts | 266° |
| 2026-05-05 14:53 | 51.64012 | 0.04607 | 7498 ft | 271 kts | 266° |
| 2026-05-05 14:53 | 51.63848 | 0.01616 | 7259 ft | 266 kts | 267° |
| 2026-05-05 14:54 | 51.63691 | -0.01322 | 7138 ft | 257 kts | 266° |
| 2026-05-05 14:54 | 51.63540 | -0.04111 | 7155 ft | 246 kts | 266° |
| 2026-05-05 14:54 | 51.63385 | -0.06862 | 7168 ft | 246 kts | 266° |
| 2026-05-05 14:54 | 51.63230 | -0.09636 | 7174 ft | 245 kts | 266° |
| 2026-05-05 14:55 | 51.63073 | -0.12373 | 7179 ft | 245 kts | 266° |
| 2026-05-05 14:55 | 51.62916 | -0.15114 | 7181 ft | 245 kts | 266° |
| 2026-05-05 14:55 | 51.62756 | -0.17855 | 7185 ft | 246 kts | 266° |
| 2026-05-05 14:55 | 51.62601 | -0.20601 | 7189 ft | 245 kts | 266° |
| 2026-05-05 14:56 | 51.62441 | -0.23348 | 7126 ft | 246 kts | 266° |
| 2026-05-05 14:56 | 51.62282 | -0.26085 | 7084 ft | 246 kts | 266° |
| 2026-05-05 14:56 | 51.62128 | -0.28797 | 7062 ft | 245 kts | 266° |
| 2026-05-05 14:56 | 51.61971 | -0.31528 | 7058 ft | 245 kts | 266° |
| 2026-05-05 14:57 | 51.61808 | -0.34265 | 6969 ft | 246 kts | 266° |
| 2026-05-05 14:57 | 51.61650 | -0.36998 | 6971 ft | 245 kts | 265° |
| 2026-05-05 14:57 | 51.61486 | -0.39731 | 6968 ft | 245 kts | 266° |
| 2026-05-05 14:57 | 51.61322 | -0.42463 | 6966 ft | 245 kts | 266° |
| 2026-05-05 14:58 | 51.61159 | -0.45201 | 6970 ft | 245 kts | 266° |
| 2026-05-05 14:58 | 51.60995 | -0.47931 | 6965 ft | 245 kts | 266° |
| 2026-05-05 14:58 | 51.60833 | -0.50673 | 6970 ft | 245 kts | 266° |
| 2026-05-05 14:58 | 51.60667 | -0.53409 | 6968 ft | 246 kts | 266° |
| 2026-05-05 14:59 | 51.60503 | -0.56146 | 6969 ft | 245 kts | 265° |
| 2026-05-05 14:59 | 51.60335 | -0.58877 | 6968 ft | 245 kts | 266° |
| 2026-05-05 14:59 | 51.60169 | -0.61611 | 6968 ft | 245 kts | 265° |
| 2026-05-05 14:59 | 51.60002 | -0.64347 | 6970 ft | 245 kts | 265° |
| 2026-05-05 15:00 | 51.59831 | -0.67079 | 6922 ft | 246 kts | 266° |
| 2026-05-05 15:00 | 51.59716 | -0.68903 | 6672 ft | 249 kts | 266° |
| 2026-05-05 15:00 | 51.59487 | -0.72643 | 6235 ft | 250 kts | 265° |
| 2026-05-05 15:00 | 51.59306 | -0.75445 | 5807 ft | 254 kts | 264° |
| 2026-05-05 15:01 | 51.58698 | -0.78092 | 5501 ft | 254 kts | 233° |
| 2026-05-05 15:01 | 51.57356 | -0.79885 | 5195 ft | 252 kts | 202° |
| 2026-05-05 15:01 | 51.55641 | -0.80371 | 4824 ft | 252 kts | 175° |
| 2026-05-05 15:01 | 51.53913 | -0.80044 | 4476 ft | 251 kts | 170° |
| 2026-05-05 15:02 | 51.52191 | -0.79676 | 4218 ft | 248 kts | 172° |
| 2026-05-05 15:02 | 51.50486 | -0.79412 | 3787 ft | 243 kts | 173° |
| 2026-05-05 15:02 | 51.48906 | -0.78673 | 3441 ft | 233 kts | 142° |
| 2026-05-05 15:02 | 51.47845 | -0.76837 | 3223 ft | 222 kts | 111° |
| 2026-05-05 15:03 | 51.47526 | -0.74473 | 3019 ft | 213 kts | 89° |
| 2026-05-05 15:03 | 51.47580 | -0.72134 | 2840 ft | 206 kts | 84° |
| 2026-05-05 15:03 | 51.47665 | -0.69905 | 2750 ft | 193 kts | 84° |
| 2026-05-05 15:03 | 51.47706 | -0.67803 | 2505 ft | 189 kts | 86° |
| 2026-05-05 15:04 | 51.47718 | -0.65671 | 2243 ft | 187 kts | 87° |
| 2026-05-05 15:04 | 51.47718 | -0.63585 | 1992 ft | 184 kts | 87° |
| 2026-05-05 15:04 | 51.47718 | -0.61546 | 1766 ft | 180 kts | 86° |
| 2026-05-05 15:04 | 51.47722 | -0.59586 | 1518 ft | 176 kts | 87° |
| 2026-05-05 15:05 | 51.47728 | -0.55864 | 1023 ft | 157 kts | 88° |
| 2026-05-05 15:05 | 51.47731 | -0.54127 | 830 ft | 155 kts | 86° |
| 2026-05-05 15:05 | 51.47737 | -0.52402 | 633 ft | 154 kts | 86° |
| 2026-05-05 15:06 | 51.47743 | -0.50681 | 400 ft | 154 kts | 86° |
| 2026-05-05 15:06 | 51.47745 | -0.48962 | 161 ft | 155 kts | 87° |
| 2026-05-05 15:06 | 51.47765 | -0.47273 | 93 ft | 140 kts | 92° |
| 2026-05-05 15:06 | 51.47760 | -0.45996 | 96 ft | 89 kts | 89° |
| 2026-05-05 15:07 | 51.47763 | -0.45201 | 96 ft | 58 kts | 90° |
| 2026-05-05 15:07 | 51.47762 | -0.44764 | 97 ft | 33 kts | 93° |
| 2026-05-05 15:07 | 51.47706 | -0.44408 | 98 ft | 28 kts | 115° |
| 2026-05-05 15:07 | 51.47674 | -0.44296 | 95 ft | 7 kts | 120° |
| 2026-05-05 15:08 | 51.47633 | -0.44251 | 98 ft | 8 kts | 185° |
| 2026-05-05 15:08 | 51.47602 | -0.44330 | 95 ft | 10 kts | 258° |
| 2026-05-05 15:08 | 51.47599 | -0.44463 | 95 ft | 13 kts | 270° |
| 2026-05-05 15:08 | 51.47599 | -0.44632 | 95 ft | 17 kts | 270° |
| 2026-05-05 15:09 | 51.47599 | -0.44833 | 95 ft | 11 kts | 270° |
| 2026-05-05 15:09 | 51.47599 | -0.44849 | 95 ft | 2 kts | 270° |
| 2026-05-05 15:09 | 51.47599 | -0.44893 | 95 ft | 6 kts | 270° |
| 2026-05-05 15:09 | 51.47599 | -0.44978 | 95 ft | 9 kts | 270° |
| 2026-05-05 15:10 | 51.47598 | -0.45101 | 95 ft | 12 kts | 262° |
| 2026-05-05 15:10 | 51.47535 | -0.45190 | 98 ft | 13 kts | 217° |
| 2026-05-05 15:10 | 51.47509 | -0.45340 | 98 ft | 16 kts | 269° |
| 2026-05-05 15:10 | 51.47508 | -0.45520 | 98 ft | 14 kts | 270° |
| 2026-05-05 15:11 | 51.47509 | -0.45624 | 98 ft | 10 kts | 270° |
| 2026-05-05 15:11 | 51.47512 | -0.45753 | 97 ft | 13 kts | 274° |
| 2026-05-05 15:11 | 51.47517 | -0.45916 | 94 ft | 16 kts | 270° |
| 2026-05-05 15:11 | 51.47517 | -0.46116 | 94 ft | 20 kts | 269° |
| 2026-05-05 15:12 | 51.47516 | -0.46324 | 94 ft | 16 kts | 269° |
| 2026-05-05 15:12 | 51.47516 | -0.46529 | 94 ft | 20 kts | 269° |
| 2026-05-05 15:12 | 51.47504 | -0.46734 | 97 ft | 16 kts | 254° |
| 2026-05-05 15:12 | 51.47465 | -0.46876 | 98 ft | 14 kts | 194° |
| 2026-05-05 15:13 | 51.47358 | -0.46867 | 96 ft | 17 kts | 178° |
| 2026-05-05 15:13 | 51.47229 | -0.46866 | 94 ft | 16 kts | 180° |
| 2026-05-05 15:13 | 51.47116 | -0.46865 | 94 ft | 18 kts | 179° |
| 2026-05-05 15:13 | 51.47023 | -0.46864 | 94 ft | 3 kts | 180° |
| 2026-05-05 15:14 | 51.46998 | -0.46877 | 98 ft | 5 kts | 225° |
| 2026-05-05 15:14 | 51.46986 | -0.46920 | 96 ft | 0 kts | 260° |
| 2026-05-05 15:14 | 51.46986 | -0.46930 | 96 ft | 2 kts | 269° |
| 2026-05-05 15:14 | 51.46986 | -0.46967 | 96 ft | 5 kts | 269° |
| 2026-05-05 15:15 | 51.46986 | -0.46985 | 96 ft | 2 kts | 269° |